• Join FlightAware (Why Join?)
  • Login
  • US Flag 
03:43AM EST


 

Airport Tracker/Info


-or-


 

Live Flight TrackerFlight Track Log ✈ N589H ✈ 15-Jul-2014 ✈ MDSD / SDQ - KILM

Flight Track Log - Related Links

Times and Time Zones

All times are in EDT time to prevent confusion due to time zone crossing. See the N589H flight status page for this flight to view local times or setup timezone preferences in your user account.

Time Position Orientation Groundspeed Altitude Reporting Facility
EDT Latitude Longitude Course Direction KTS MPH feet Rate Location/Type
08:39PM 18.6786 -69.9653 329° Northwest 276 318 14,800  Level Miami Center
08:40PM 18.7422 -70.0058 329° Northwest 266 306 16,300 1,475 Climbing Miami Center
08:41PM 18.8061 -70.0453 330° Northwest 266 306 17,800 1,475 Climbing Miami Center
08:42PM 18.8694 -70.0869 328° Northwest 266 306 19,300 1,377 Climbing Miami Center
08:43PM 18.9347 -70.1303 328° Northwest 269 310 20,600 1,131 Climbing Miami Center
08:44PM 19.0047 -70.1747 329° Northwest 280 322 21,600 984 Climbing Miami Center
08:45PM 19.0775 -70.2239 327° Northwest 295 339 22,600 984 Climbing Miami Center
08:46PM 19.1500 -70.2731 327° Northwest 303 349 23,600 984 Climbing Miami Center
08:47PM 19.2233 -70.3194 329° Northwest 304 350 24,600 1,033 Climbing Miami Center
08:48PM 19.2953 -70.3706 326° Northwest 305 351 25,700 1,033 Climbing Miami Center
08:49PM 19.3692 -70.4164 330° Northwest 305 351 26,700 1,033 Climbing Miami Center
08:50PM 19.4389 -70.4650 327° Northwest 305 351 27,800 1,033 Climbing Miami Center
08:51PM 19.5100 -70.5106 329° Northwest 303 349 28,800 984 Climbing Miami Center
08:52PM 19.5928 -70.5658 328° Northwest 298 343 29,800 689 Climbing Miami Center
08:53PM 19.6633 -70.6117 329° Northwest 298 343 30,200 443 Climbing Miami Center
08:54PM 19.7350 -70.6597 328° Northwest 298 343 30,700 488 Climbing Miami Center
08:55PM 19.8072 -70.7089 327° Northwest 300 345 31,200 488 Climbing Miami Center
08:56PM 19.8789 -70.7583 327° Northwest 304 350 31,700 492 Climbing Miami Center
08:57PM 19.9517 -70.8036 330° Northwest 304 350 32,200 393 Climbing Miami Center
08:58PM 20.0233 -70.8528 327° Northwest 304 350 32,500 344 Climbing Miami Center
08:59PM 20.0964 -70.9017 328° Northwest 305 351 32,900 393 Climbing Miami Center
09:00PM 20.1683 -70.9506 327° Northwest 305 351 33,300 344 Climbing Miami Center
09:01PM 20.2417 -71.0003 328° Northwest 306 352 33,600 246 Climbing Miami Center
09:02PM 20.3153 -71.0494 328° Northwest 307 353 33,800 148 Climbing Miami Center
09:03PM 20.3900 -71.0981 329° Northwest 308 354 33,900 49 Climbing Miami Center
09:05PM 20.4683 -71.1467 330° Northwest 315 362 33,900  Level Miami Center
09:06PM 20.5672 -71.1967 335° Northwest 322 371 33,900  Level Miami Center
09:07PM 20.6422 -71.2533 325° Northwest 324 373 33,900  Level Miami Center
09:08PM 20.7161 -71.3142 322° Northwest 332 382 33,900  Level Miami Center
09:09PM 20.7917 -71.3739 324° Northwest 332 382 33,900  Level Miami Center
09:10PM 20.8681 -71.4342 324° Northwest 333 383 33,900  Level Miami Center
09:11PM 20.9439 -71.4944 323° Northwest 334 384 33,900  Level Miami Center
09:12PM 21.0189 -71.5561 322° Northwest 334 384 33,900  Level Miami Center
09:13PM 21.0950 -71.6172 323° Northwest 334 384 33,900  Level Miami Center
09:14PM 21.1714 -71.6778 324° Northwest 335 386 33,900  Level Miami Center
09:15PM 21.2481 -71.7383 324° Northwest 335 386 33,900 98 Level Miami Center
09:16PM 21.3242 -71.7994 323° Northwest 336 387 34,100 195 Climbing Miami Center
09:17PM 21.3981 -71.8586 323° Northwest 336 387 34,300 244 Climbing Miami Center
09:18PM 21.4717 -71.9169 324° Northwest 332 382 34,600 246 Climbing Miami Center
09:19PM 21.5433 -71.9758 323° Northwest 329 379 34,800 246 Climbing Miami Center
09:20PM 21.6139 -72.0311 324° Northwest 319 367 35,100 246 Climbing Miami Center
09:21PM 21.6842 -72.0867 324° Northwest 317 365 35,300 246 Climbing Miami Center
09:22PM 21.7656 -72.1539 323° Northwest 310 357 35,600 246 Climbing Miami Center
09:23PM 21.8333 -72.2081 323° Northwest 307 353 35,800 98 Climbing Miami Center
09:24PM 21.9006 -72.2628 323° Northwest 304 350 35,800 50 Level Miami Center
09:25PM 21.9686 -72.3197 322° Northwest 305 351 35,900 50 Climbing Miami Center
09:26PM 22.0381 -72.3764 323° Northwest 306 352 35,900  Level Miami Center
09:27PM 22.1069 -72.4333 323° Northwest 308 354 35,900  Level Miami Center
09:28PM 22.1772 -72.4908 323° Northwest 310 357 35,900  Level Miami Center
09:29PM 22.2464 -72.5483 322° Northwest 313 360 35,900  Level Miami Center
09:30PM 22.3172 -72.6067 323° Northwest 314 361 35,900  Level Miami Center
09:31PM 22.3892 -72.6636 324° Northwest 314 361 35,900  Level Miami Center
09:32PM 22.4597 -72.7192 324° Northwest 315 362 35,900  Level Miami Center
09:33PM 22.5294 -72.7764 323° Northwest 314 361 35,900  Level Miami Center
09:34PM 22.5967 -72.8319 323° Northwest 305 351 35,900  Level Miami Center
09:35PM 22.6619 -72.8900 321° Northwest 304 350 35,900  Level Miami Center
09:36PM 22.7297 -72.9447 323° Northwest 302 348 35,900  Level Miami Center
09:37PM 22.7967 -73.0006 322° Northwest 302 348 35,900  Level Miami Center
09:38PM 22.8775 -73.0667 323° Northwest 302 348 35,900  Level Miami Center
09:39PM 22.9447 -73.1214 323° Northwest 302 348 35,900  Level Miami Center
09:40PM 23.0008 -73.1700 321° Northwest 302 348 35,900  Level Miami Center
09:41PM 23.0672 -73.2253 323° Northwest 302 348 35,900  Level Miami Center
09:42PM 23.1478 -73.2908 323° Northwest 302 348 35,900  Level Miami Center
09:43PM 23.2153 -73.3469 323° Northwest 302 348 35,900  Level Miami Center
09:44PM 23.2847 -73.4014 324° Northwest 302 348 35,900  Level Miami Center
09:45PM 23.3519 -73.4583 322° Northwest 303 349 35,900  Level Miami Center
09:46PM 23.4189 -73.5150 322° Northwest 303 349 35,900  Level Miami Center
09:47PM 23.4872 -73.5703 323° Northwest 303 349 35,900  Level Miami Center
09:48PM 23.5542 -73.6267 322° Northwest 303 349 35,900  Level Miami Center
09:49PM 23.6214 -73.6828 323° Northwest 303 349 35,900  Level Miami Center
09:50PM 23.6911 -73.7397 323° Northwest 308 354 35,900  Level Miami Center
09:51PM 23.7586 -73.7972 322° Northwest 308 354 35,900  Level Miami Center
09:52PM 23.8275 -73.8547 323° Northwest 309 356 35,900  Level Miami Center
09:53PM 23.8981 -73.9133 323° Northwest 316 364 35,900  Level Miami Center
09:54PM 23.9661 -73.9703 323° Northwest 312 359 35,900  Level Miami Center
09:55PM 24.0336 -74.0294 321° Northwest 311 358 35,900  Level Miami Center
09:56PM 24.1025 -74.0875 322° Northwest 310 357 35,900  Level Miami Center
09:57PM 24.1717 -74.1447 323° Northwest 309 356 35,900  Level Miami Center
09:58PM 24.2525 -74.2136 322° Northwest 307 353 35,900  Level Miami Center
09:59PM 24.3217 -74.2706 323° Northwest 309 356 35,900  Level Miami Center
10:00PM 24.3894 -74.3292 322° Northwest 309 356 35,900  Level Miami Center
10:01PM 24.4592 -74.3875 323° Northwest 311 358 35,900  Level Miami Center
10:02PM 24.5272 -74.4456 322° Northwest 312 359 35,900  Level Miami Center
10:03PM 24.5942 -74.5022 322° Northwest 310 357 35,900  Level Miami Center
10:04PM 24.6606 -74.5589 322° Northwest 304 350 35,900  Level Miami Center
10:05PM 24.7281 -74.6181 321° Northwest 305 351 35,900  Level Miami Center
10:06PM 24.7942 -74.6742 322° Northwest 305 351 35,900  Level Miami Center
10:07PM 24.8608 -74.7311 322° Northwest 304 350 35,900  Level Miami Center
10:08PM 24.9269 -74.7881 322° Northwest 303 349 35,900  Level Miami Center
10:09PM 24.9922 -74.8450 322° Northwest 303 349 35,900  Level Miami Center
10:11PM 25.0583 -74.9017 322° Northwest 303 349 35,900  Level Miami Center
10:12PM 25.1250 -74.9589 322° Northwest 302 348 35,900  Level Miami Center
10:13PM 25.1922 -75.0158 323° Northwest 303 349 35,900  Level Miami Center
10:14PM 25.2717 -75.0850 322° Northwest 303 349 35,900  Level Miami Center
10:15PM 25.3378 -75.1433 321° Northwest 302 348 35,900  Level Miami Center
10:16PM 25.4056 -75.2017 322° Northwest 305 351 35,900  Level Miami Center
10:17PM 25.4733 -75.2600 322° Northwest 308 354 35,900  Level Miami Center
10:18PM 25.5406 -75.3192 322° Northwest 308 354 35,900  Level Miami Center
10:19PM 25.6086 -75.3789 322° Northwest 309 356 35,900  Level Miami Center
10:20PM 25.6806 -75.4406 322° Northwest 310 357 35,900  Level Miami Center
10:21PM 25.7489 -75.5011 321° Northwest 311 358 35,900  Level Miami Center
10:22PM 25.8197 -75.5622 322° Northwest 318 366 35,900  Level Miami Center
10:23PM 25.8886 -75.6222 322° Northwest 317 365 35,900  Level Miami Center
10:24PM 25.9575 -75.6825 322° Northwest 316 364 35,900  Level Miami Center
10:25PM 26.0264 -75.7433 322° Northwest 316 364 35,900 50 Level Miami Center
10:26PM 26.1022 -75.8094 322° Northwest 315 362 36,000 197 Climbing Miami Center
10:27PM 26.1717 -75.8703 322° Northwest 315 362 36,300 246 Climbing Miami Center
10:28PM 26.2392 -75.9306 321° Northwest 315 362 36,500 248 Climbing Miami Center
10:29PM 26.3067 -75.9903 322° Northwest 314 361 36,800 148 Climbing Miami Center
10:30PM 26.3736 -76.0481 322° Northwest 307 353 36,800 49 Level Miami Center
10:31PM 26.4414 -76.1081 322° Northwest 307 353 36,900 49 Climbing Miami Center
10:32PM 26.5103 -76.1706 321° Northwest 318 366 36,900  Level Miami Center
10:33PM 26.5853 -76.2383 321° Northwest 317 365 36,900  Level Miami Center
10:34PM 26.6514 -76.2964 322° Northwest 309 356 36,900  Level Miami Center
10:35PM 26.7183 -76.3561 321° Northwest 307 353 36,900  Level Miami Center
10:36PM 26.7856 -76.4119 323° Northwest 306 352 36,900  Level Miami Center
10:37PM 26.8597 -76.4483 336° Northwest 293 337 36,900  Level Miami Center
10:38PM 26.9453 -76.4767 344° North 294 338 36,900  Level Miami Center
10:39PM 27.0228 -76.5039 343° North 292 336 36,900  Level Miami Center
10:40PM 27.1011 -76.5294 344° North 292 336 36,900  Level Miami Center
10:41PM 27.1789 -76.5581 342° North 294 338 36,900  Level Miami Center
10:42PM 27.2575 -76.5858 343° North 297 342 36,900  Level Miami Center
10:43PM 27.3367 -76.6122 344° North 295 339 36,900  Level Miami Center
10:44PM 27.4264 -76.6514 339° North 306 352 36,900  Level Miami Center
10:45PM 27.5061 -76.6794 343° North 306 352 36,900  Level Miami Center
10:46PM 27.5872 -76.7089 342° North 305 351 36,900  Level Miami Center
10:47PM 27.6672 -76.7361 343° North 305 351 36,900  Level Miami Center
10:48PM 27.7478 -76.7650 342° North 305 351 36,900  Level Miami Center
10:49PM 27.8292 -76.7964 341° North 305 351 36,900  Level Miami Center
10:50PM 27.9094 -76.8242 343° North 305 351 36,900  Level Miami Center
10:51PM 27.9906 -76.8494 345° North 304 350 36,900  Level Miami Center
10:52PM 28.0733 -76.8833 340° North 307 353 36,900  Level Miami Center
10:53PM 28.1642 -76.9200 340° North 310 357 36,900  Level Miami Center
10:54PM 28.2369 -76.9422 345° North 311 358 36,900  Level Miami Center
10:55PM 28.3208 -76.9625 348° North 311 358 36,900  Level Miami Center
10:56PM 28.4044 -76.9756 352° North 307 353 36,900  Level Miami Center
10:57PM 28.4894 -76.9875 353° North 306 352 36,900  Level Miami Center
10:58PM 28.5753 -77.0011 352° North 306 352 36,900  Level Miami Center
10:59PM 28.6606 -77.0131 353° North 307 353 36,900  Level Miami Center
11:00PM 28.7456 -77.0258 352° North 307 353 36,900  Level Miami Center
11:01PM 28.8303 -77.0383 353° North 307 353 36,900  Level Miami Center
11:02PM 28.9158 -77.0519 352° North 307 353 36,900  Level Miami Center
11:03PM 29.0219 -77.0675 353° North 310 357 36,900  Level Miami Center
11:04PM 29.1078 -77.0811 352° North 311 358 36,900  Level Miami Center
11:05PM 29.1936 -77.0936 353° North 311 358 36,900  Level Miami Center
11:06PM 29.2806 -77.1067 353° North 311 358 36,900  Level Miami Center
11:07PM 29.3686 -77.1203 352° North 311 358 36,900  Level Miami Center
11:08PM 29.4561 -77.1331 353° North 312 359 36,900  Level Miami Center
11:09PM 29.5428 -77.1478 352° North 312 359 36,900  Level Miami Center
11:10PM 29.6306 -77.1608 353° North 313 360 36,900  Level Miami Center
11:11PM 29.6808 -77.1681 353° North 313 360 36,900  Level Jacksonville Center
11:12PM 29.7628 -77.1778 354° North 307 353 36,900  Level Jacksonville Center
11:13PM 29.8511 -77.1917 352° North 301 346 36,900  Level Jacksonville Center
11:14PM 29.9414 -77.2056 352° North 321 369 36,900  Level Jacksonville Center
11:15PM 30.0297 -77.2219 351° North 315 362 36,900  Level Jacksonville Center
11:16PM 30.1244 -77.2378 352° North 313 360 36,900  Level Jacksonville Center
11:17PM 30.2128 -77.2542 351° North 320 368 36,900  Level Jacksonville Center
11:18PM 30.2986 -77.2614 356° North 323 372 36,900  Level Jacksonville Center
11:19PM 30.3869 -77.2778 351° North 311 358 36,900  Level Jacksonville Center
11:20PM 30.4711 -77.2922 352° North 311 358 36,900  Level Jacksonville Center
11:21PM 30.5592 -77.2989 356° North 311 358 36,900  Level Jacksonville Center
11:22PM 30.6431 -77.3086 354° North 311 358 36,900  Level Jacksonville Center
11:23PM 30.7311 -77.3178 355° North 311 358 36,900  Level Jacksonville Center
11:24PM 30.8172 -77.3344 351° North 311 358 36,900  Level Jacksonville Center
11:25PM 30.9056 -77.3486 352° North 311 358 36,900  Level Jacksonville Center
11:26PM 30.9917 -77.3606 353° North 317 365 36,900  Level Jacksonville Center
11:27PM 31.0778 -77.3750 352° North 311 358 36,900  Level Jacksonville Center
11:28PM 31.1664 -77.3964 348° North 326 375 36,900  Level Jacksonville Center
11:29PM 31.2547 -77.4083 353° North 321 369 36,900  Level Jacksonville Center
11:30PM 31.3428 -77.4178 355° North 319 367 36,900  Level Jacksonville Center
11:31PM 31.4311 -77.4344 351° North 326 375 36,900  Level Jacksonville Center
11:32PM 31.5194 -77.4511 351° North 311 358 36,900  Level Jacksonville Center
11:33PM 31.6097 -77.4631 354° North 314 361 36,900  Level Jacksonville Center
11:34PM 31.7003 -77.4797 351° North 320 368 36,900  Level Jacksonville Center
11:35PM 31.7922 -77.4839 358° North 325 374 36,900  Level Jacksonville Center
11:36PM 31.8808 -77.5058 348° North 325 374 36,900  Level Jacksonville Center
11:37PM 31.9733 -77.5200 353° North 330 380 36,900  Level Jacksonville Center
11:38PM 32.0617 -77.5367 351° North 330 380 36,900  Level Jacksonville Center
11:39PM 32.1519 -77.5511 352° North 330 380 36,900  Level Jacksonville Center
11:40PM 32.2403 -77.5681 351° North 330 380 36,900  Level Jacksonville Center
11:41PM 32.3328 -77.5797 354° North 330 380 36,900  Level Jacksonville Center
11:42PM 32.4231 -77.5967 351° North 330 380 36,900  Level Jacksonville Center
11:43PM 32.5153 -77.6061 355° North 330 380 36,900  Level Jacksonville Center
11:44PM 32.6039 -77.6256 350° North 330 380 36,900  Level Jacksonville Center
11:45PM 32.6942 -77.6400 352° North 330 380 36,900 -750 Level Jacksonville Center
11:46PM 32.7867 -77.6569 351° North 330 380 35,400 -2,102 Descending Jacksonville Center
11:47PM 32.9461 -77.6725 355° North 354 407 31,400 -2,658 Descending Washington Center
11:48PM 33.0481 -77.6750 359° North 354 407 28,400 -2,773 Descending Washington Center
11:49PM 33.1503 -77.6775 359° North 360 414 25,900 -2,300 Descending Washington Center
11:50PM 33.2506 -77.6750 North 365 420 23,800 -1,850 Descending Washington Center
11:51PM 33.3506 -77.6750 360° North 360 414 22,200 -1,525 Descending Washington Center
11:52PM 33.4486 -77.6747 360° North 355 409 20,800 -1,388 Descending Washington Center
11:53PM 33.5489 -77.6697 North 355 409 19,400 -1,475 Descending Washington Center
11:54PM 33.6444 -77.6822 354° North 349 402 17,800 -1,563 Descending Washington Center
11:55PM 33.7403 -77.6944 354° North 349 402 16,300 -1,627 Descending Washington Center
11:56PM 33.8361 -77.7019 356° North 349 402 14,600 -1,835 Descending Washington Center
11:57PM 33.9300 -77.7094 356° North 349 402 12,600 -2,100 Descending Washington Center
11:58PM 34.0111 -77.7139 357° North 336 387 10,400 -2,350 Descending Washington Center
11:59PM 34.0944 -77.7211 356° North 321 369 7,900 -2,727 Descending Washington Center
12:00AM 34.1714 -77.7331 353° North 294 338 4,900 -2,430 Descending Washington Center
12:01AM 34.2353 -77.7750 332° Northwest 266 306 3,000 -1,513 Descending Washington Center
12:02AM 34.2892 -77.8039 336° Northwest 237 273 1,900 -950 Descending Washington Center
12:03AM 34.3069 -77.8472 296° West 168 193 1,100 -800 Descending Washington Center
12:04AM 34.2856 -77.8819 233° Southwest 118 136 300 -828 Descending Washington Center
12:06AM 34.2667 -77.9000 202° Southwest  Level FlightAware Approximate
12:13AM 34.2711 -77.9029 202° Southwest  Level Estimated
12:14AM 34.2711 -77.9029 202° Southwest  Level Estimated